sensor_id;sensor_type;location;lat;lon;timestamp;P1;durP1;ratioP1;P2;durP2;ratioP2
5391;SDS011;2719;53.624;9.786;2023-07-13T00:00:48;3.30;;;0.70;;
5391;SDS011;2719;53.624;9.786;2023-07-13T00:03:15;2.20;;;0.67;;
5391;SDS011;2719;53.624;9.786;2023-07-13T00:05:42;3.47;;;1.20;;
5391;SDS011;2719;53.624;9.786;2023-07-13T00:08:10;3.30;;;0.87;;
5391;SDS011;2719;53.624;9.786;2023-07-13T00:10:40;2.07;;;0.83;;
5391;SDS011;2719;53.624;9.786;2023-07-13T00:13:07;3.40;;;0.70;;
5391;SDS011;2719;53.624;9.786;2023-07-13T00:15:33;2.73;;;0.93;;
5391;SDS011;2719;53.624;9.786;2023-07-13T00:18:00;1.50;;;0.70;;
5391;SDS011;2719;53.624;9.786;2023-07-13T00:20:27;4.37;;;1.20;;
5391;SDS011;2719;53.624;9.786;2023-07-13T00:22:54;13.63;;;1.00;;
5391;SDS011;2719;53.624;9.786;2023-07-13T00:25:22;3.70;;;0.80;;
5391;SDS011;2719;53.624;9.786;2023-07-13T00:27:51;9.83;;;0.80;;
5391;SDS011;2719;53.624;9.786;2023-07-13T00:30:18;2.37;;;0.70;;
5391;SDS011;2719;53.624;9.786;2023-07-13T00:32:44;3.07;;;0.87;;
5391;SDS011;2719;53.624;9.786;2023-07-13T00:35:12;2.07;;;0.70;;
5391;SDS011;2719;53.624;9.786;2023-07-13T00:37:40;4.70;;;0.77;;
5391;SDS011;2719;53.624;9.786;2023-07-13T00:40:07;2.17;;;0.80;;
5391;SDS011;2719;53.624;9.786;2023-07-13T00:42:37;11.87;;;0.80;;
5391;SDS011;2719;53.624;9.786;2023-07-13T00:45:05;3.40;;;1.10;;
5391;SDS011;2719;53.624;9.786;2023-07-13T00:47:52;5.97;;;0.80;;
5391;SDS011;2719;53.624;9.786;2023-07-13T00:50:20;3.23;;;1.00;;
5391;SDS011;2719;53.624;9.786;2023-07-13T00:52:54;2.90;;;1.33;;
5391;SDS011;2719;53.624;9.786;2023-07-13T00:55:23;1.63;;;0.70;;
5391;SDS011;2719;53.624;9.786;2023-07-13T00:57:51;2.43;;;0.80;;
5391;SDS011;2719;53.624;9.786;2023-07-13T01:00:18;5.20;;;0.90;;
5391;SDS011;2719;53.624;9.786;2023-07-13T01:02:46;3.07;;;0.87;;
5391;SDS011;2719;53.624;9.786;2023-07-13T01:05:14;4.87;;;0.93;;
5391;SDS011;2719;53.624;9.786;2023-07-13T01:07:43;3.87;;;0.90;;
5391;SDS011;2719;53.624;9.786;2023-07-13T01:10:11;3.17;;;0.80;;
5391;SDS011;2719;53.624;9.786;2023-07-13T01:12:38;2.13;;;0.80;;
5391;SDS011;2719;53.624;9.786;2023-07-13T01:18:05;4.43;;;1.60;;
5391;SDS011;2719;53.624;9.786;2023-07-13T01:20:33;5.83;;;1.63;;
5391;SDS011;2719;53.624;9.786;2023-07-13T01:23:03;1.97;;;1.03;;
5391;SDS011;2719;53.624;9.786;2023-07-13T01:25:32;6.53;;;1.40;;
5391;SDS011;2719;53.624;9.786;2023-07-13T01:28:00;4.13;;;1.13;;
5391;SDS011;2719;53.624;9.786;2023-07-13T01:30:26;4.27;;;1.70;;
5391;SDS011;2719;53.624;9.786;2023-07-13T01:32:53;5.33;;;1.10;;
5391;SDS011;2719;53.624;9.786;2023-07-13T01:35:19;9.33;;;1.17;;
5391;SDS011;2719;53.624;9.786;2023-07-13T01:37:46;4.73;;;1.30;;
5391;SDS011;2719;53.624;9.786;2023-07-13T01:40:14;3.67;;;1.23;;
5391;SDS011;2719;53.624;9.786;2023-07-13T01:42:41;5.27;;;1.80;;
5391;SDS011;2719;53.624;9.786;2023-07-13T01:45:07;3.40;;;1.60;;
5391;SDS011;2719;53.624;9.786;2023-07-13T01:47:34;10.03;;;2.13;;
5391;SDS011;2719;53.624;9.786;2023-07-13T01:50:01;5.60;;;1.53;;
5391;SDS011;2719;53.624;9.786;2023-07-13T01:52:28;3.93;;;2.30;;
5391;SDS011;2719;53.624;9.786;2023-07-13T01:54:54;8.83;;;1.90;;
5391;SDS011;2719;53.624;9.786;2023-07-13T01:57:22;8.57;;;2.30;;
5391;SDS011;2719;53.624;9.786;2023-07-13T01:59:49;7.47;;;2.77;;
5391;SDS011;2719;53.624;9.786;2023-07-13T02:02:15;4.97;;;1.37;;
5391;SDS011;2719;53.624;9.786;2023-07-13T02:04:42;6.53;;;1.63;;
5391;SDS011;2719;53.624;9.786;2023-07-13T02:07:09;3.87;;;1.30;;
5391;SDS011;2719;53.624;9.786;2023-07-13T02:09:35;9.77;;;2.30;;
5391;SDS011;2719;53.624;9.786;2023-07-13T02:12:02;7.80;;;2.17;;
5391;SDS011;2719;53.624;9.786;2023-07-13T02:14:31;4.53;;;1.87;;
5391;SDS011;2719;53.624;9.786;2023-07-13T02:16:57;3.03;;;1.53;;
5391;SDS011;2719;53.624;9.786;2023-07-13T02:19:24;5.57;;;1.50;;
5391;SDS011;2719;53.624;9.786;2023-07-13T02:21:51;3.67;;;1.83;;
5391;SDS011;2719;53.624;9.786;2023-07-13T02:24:17;7.73;;;1.70;;
5391;SDS011;2719;53.624;9.786;2023-07-13T02:26:45;8.40;;;1.83;;
5391;SDS011;2719;53.624;9.786;2023-07-13T02:29:13;6.07;;;1.93;;
5391;SDS011;2719;53.624;9.786;2023-07-13T02:31:41;6.80;;;2.70;;
5391;SDS011;2719;53.624;9.786;2023-07-13T02:34:08;7.03;;;2.40;;
5391;SDS011;2719;53.624;9.786;2023-07-13T02:36:34;3.90;;;1.57;;
5391;SDS011;2719;53.624;9.786;2023-07-13T02:39:02;4.60;;;2.47;;
5391;SDS011;2719;53.624;9.786;2023-07-13T02:41:30;5.73;;;1.90;;
5391;SDS011;2719;53.624;9.786;2023-07-13T02:43:57;5.33;;;2.10;;
5391;SDS011;2719;53.624;9.786;2023-07-13T02:46:28;17.77;;;2.77;;
5391;SDS011;2719;53.624;9.786;2023-07-13T02:48:56;4.77;;;1.87;;
5391;SDS011;2719;53.624;9.786;2023-07-13T02:51:23;3.83;;;2.43;;
5391;SDS011;2719;53.624;9.786;2023-07-13T02:53:50;7.73;;;2.27;;
5391;SDS011;2719;53.624;9.786;2023-07-13T02:56:17;5.17;;;2.30;;
5391;SDS011;2719;53.624;9.786;2023-07-13T02:58:46;2.60;;;1.47;;
5391;SDS011;2719;53.624;9.786;2023-07-13T03:01:12;4.63;;;2.87;;
5391;SDS011;2719;53.624;9.786;2023-07-13T03:03:44;7.23;;;2.10;;
5391;SDS011;2719;53.624;9.786;2023-07-13T03:06:12;5.10;;;2.77;;
5391;SDS011;2719;53.624;9.786;2023-07-13T03:08:39;6.27;;;2.07;;
5391;SDS011;2719;53.624;9.786;2023-07-13T03:11:07;4.90;;;2.23;;
5391;SDS011;2719;53.624;9.786;2023-07-13T03:13:36;8.20;;;2.23;;
5391;SDS011;2719;53.624;9.786;2023-07-13T03:16:03;8.20;;;3.10;;
5391;SDS011;2719;53.624;9.786;2023-07-13T03:18:30;6.13;;;2.27;;
5391;SDS011;2719;53.624;9.786;2023-07-13T03:20:57;4.93;;;2.47;;
5391;SDS011;2719;53.624;9.786;2023-07-13T03:23:25;9.90;;;3.00;;
5391;SDS011;2719;53.624;9.786;2023-07-13T03:26:00;6.83;;;2.50;;
5391;SDS011;2719;53.624;9.786;2023-07-13T03:28:28;7.23;;;1.80;;
5391;SDS011;2719;53.624;9.786;2023-07-13T03:30:59;6.53;;;2.93;;
5391;SDS011;2719;53.624;9.786;2023-07-13T03:33:26;5.60;;;2.27;;
5391;SDS011;2719;53.624;9.786;2023-07-13T03:35:53;5.00;;;1.80;;
5391;SDS011;2719;53.624;9.786;2023-07-13T03:38:19;6.60;;;2.53;;
5391;SDS011;2719;53.624;9.786;2023-07-13T03:40:47;11.57;;;2.20;;
5391;SDS011;2719;53.624;9.786;2023-07-13T03:43:14;4.97;;;2.23;;
5391;SDS011;2719;53.624;9.786;2023-07-13T03:45:41;10.07;;;1.87;;
5391;SDS011;2719;53.624;9.786;2023-07-13T03:48:08;5.93;;;2.30;;
5391;SDS011;2719;53.624;9.786;2023-07-13T03:50:35;6.73;;;1.97;;
5391;SDS011;2719;53.624;9.786;2023-07-13T03:53:01;5.50;;;2.23;;
5391;SDS011;2719;53.624;9.786;2023-07-13T03:55:28;4.27;;;1.90;;
5391;SDS011;2719;53.624;9.786;2023-07-13T03:57:59;6.13;;;2.10;;
5391;SDS011;2719;53.624;9.786;2023-07-13T04:00:26;10.13;;;2.37;;
5391;SDS011;2719;53.624;9.786;2023-07-13T04:02:53;7.47;;;2.13;;
5391;SDS011;2719;53.624;9.786;2023-07-13T04:05:20;6.27;;;2.33;;
5391;SDS011;2719;53.624;9.786;2023-07-13T04:07:46;11.53;;;2.50;;
5391;SDS011;2719;53.624;9.786;2023-07-13T04:10:13;5.00;;;2.13;;
5391;SDS011;2719;53.624;9.786;2023-07-13T04:12:40;4.53;;;2.50;;
5391;SDS011;2719;53.624;9.786;2023-07-13T04:15:08;18.03;;;2.50;;
5391;SDS011;2719;53.624;9.786;2023-07-13T04:17:35;8.00;;;2.20;;
5391;SDS011;2719;53.624;9.786;2023-07-13T04:20:02;6.23;;;2.30;;
5391;SDS011;2719;53.624;9.786;2023-07-13T04:22:29;7.30;;;1.87;;
5391;SDS011;2719;53.624;9.786;2023-07-13T04:24:56;7.80;;;2.63;;
5391;SDS011;2719;53.624;9.786;2023-07-13T04:27:22;6.60;;;2.30;;
5391;SDS011;2719;53.624;9.786;2023-07-13T04:29:49;6.17;;;1.83;;
5391;SDS011;2719;53.624;9.786;2023-07-13T04:32:17;7.43;;;2.00;;
5391;SDS011;2719;53.624;9.786;2023-07-13T04:34:43;7.30;;;2.30;;
5391;SDS011;2719;53.624;9.786;2023-07-13T04:37:10;4.50;;;2.40;;
5391;SDS011;2719;53.624;9.786;2023-07-13T04:39:37;3.90;;;2.40;;
5391;SDS011;2719;53.624;9.786;2023-07-13T04:42:03;6.53;;;2.30;;
5391;SDS011;2719;53.624;9.786;2023-07-13T04:44:31;12.20;;;2.50;;
5391;SDS011;2719;53.624;9.786;2023-07-13T04:46:57;10.33;;;2.13;;
5391;SDS011;2719;53.624;9.786;2023-07-13T04:49:26;9.13;;;1.73;;
5391;SDS011;2719;53.624;9.786;2023-07-13T04:51:52;12.37;;;2.87;;
5391;SDS011;2719;53.624;9.786;2023-07-13T04:54:20;5.10;;;1.83;;
5391;SDS011;2719;53.624;9.786;2023-07-13T04:56:47;5.37;;;2.73;;
5391;SDS011;2719;53.624;9.786;2023-07-13T04:59:14;9.93;;;2.73;;
5391;SDS011;2719;53.624;9.786;2023-07-13T05:01:41;7.50;;;2.63;;
5391;SDS011;2719;53.624;9.786;2023-07-13T05:04:07;7.30;;;2.27;;
5391;SDS011;2719;53.624;9.786;2023-07-13T05:06:35;8.17;;;2.43;;
5391;SDS011;2719;53.624;9.786;2023-07-13T05:09:02;4.63;;;2.37;;
5391;SDS011;2719;53.624;9.786;2023-07-13T05:11:29;6.97;;;2.47;;
5391;SDS011;2719;53.624;9.786;2023-07-13T05:13:55;9.73;;;2.07;;
5391;SDS011;2719;53.624;9.786;2023-07-13T05:16:22;5.87;;;1.80;;
5391;SDS011;2719;53.624;9.786;2023-07-13T05:18:49;4.60;;;2.23;;
5391;SDS011;2719;53.624;9.786;2023-07-13T05:21:16;9.83;;;3.30;;
5391;SDS011;2719;53.624;9.786;2023-07-13T05:23:44;11.13;;;2.60;;
5391;SDS011;2719;53.624;9.786;2023-07-13T05:26:11;13.10;;;3.17;;
5391;SDS011;2719;53.624;9.786;2023-07-13T05:28:38;10.73;;;2.53;;
5391;SDS011;2719;53.624;9.786;2023-07-13T05:31:05;17.57;;;3.07;;
5391;SDS011;2719;53.624;9.786;2023-07-13T05:33:33;10.83;;;3.00;;
5391;SDS011;2719;53.624;9.786;2023-07-13T05:35:59;19.60;;;2.57;;
5391;SDS011;2719;53.624;9.786;2023-07-13T05:38:27;8.03;;;2.33;;
5391;SDS011;2719;53.624;9.786;2023-07-13T05:40:55;9.40;;;3.17;;
5391;SDS011;2719;53.624;9.786;2023-07-13T05:43:22;9.00;;;2.10;;
5391;SDS011;2719;53.624;9.786;2023-07-13T05:45:50;11.80;;;2.57;;
5391;SDS011;2719;53.624;9.786;2023-07-13T05:48:18;10.13;;;2.50;;
5391;SDS011;2719;53.624;9.786;2023-07-13T05:50:45;5.50;;;2.33;;
5391;SDS011;2719;53.624;9.786;2023-07-13T05:53:12;13.83;;;3.30;;
5391;SDS011;2719;53.624;9.786;2023-07-13T05:55:40;12.27;;;3.23;;
5391;SDS011;2719;53.624;9.786;2023-07-13T05:58:09;9.90;;;3.10;;
5391;SDS011;2719;53.624;9.786;2023-07-13T06:00:37;10.70;;;2.87;;
5391;SDS011;2719;53.624;9.786;2023-07-13T06:03:04;25.73;;;3.80;;
5391;SDS011;2719;53.624;9.786;2023-07-13T06:05:31;12.13;;;2.00;;
5391;SDS011;2719;53.624;9.786;2023-07-13T06:07:59;12.07;;;2.87;;
5391;SDS011;2719;53.624;9.786;2023-07-13T06:10:25;12.80;;;3.37;;
5391;SDS011;2719;53.624;9.786;2023-07-13T06:12:52;12.03;;;2.77;;
5391;SDS011;2719;53.624;9.786;2023-07-13T06:15:20;15.23;;;2.90;;
5391;SDS011;2719;53.624;9.786;2023-07-13T06:17:47;9.63;;;2.30;;
5391;SDS011;2719;53.624;9.786;2023-07-13T06:20:14;10.13;;;2.40;;
5391;SDS011;2719;53.624;9.786;2023-07-13T06:22:40;15.60;;;3.40;;
5391;SDS011;2719;53.624;9.786;2023-07-13T06:25:07;14.80;;;2.50;;
5391;SDS011;2719;53.624;9.786;2023-07-13T06:27:34;14.07;;;2.70;;
5391;SDS011;2719;53.624;9.786;2023-07-13T06:30:01;9.90;;;2.03;;
5391;SDS011;2719;53.624;9.786;2023-07-13T06:32:29;8.10;;;2.90;;
5391;SDS011;2719;53.624;9.786;2023-07-13T06:34:56;9.43;;;2.17;;
5391;SDS011;2719;53.624;9.786;2023-07-13T06:37:23;12.77;;;2.83;;
5391;SDS011;2719;53.624;9.786;2023-07-13T06:39:49;7.20;;;2.60;;
5391;SDS011;2719;53.624;9.786;2023-07-13T06:42:16;15.43;;;2.10;;
5391;SDS011;2719;53.624;9.786;2023-07-13T06:44:43;10.13;;;2.90;;
5391;SDS011;2719;53.624;9.786;2023-07-13T06:47:10;17.30;;;2.53;;
5391;SDS011;2719;53.624;9.786;2023-07-13T06:49:38;17.47;;;3.00;;
5391;SDS011;2719;53.624;9.786;2023-07-13T06:52:05;7.03;;;1.97;;
5391;SDS011;2719;53.624;9.786;2023-07-13T06:54:32;11.80;;;2.43;;
5391;SDS011;2719;53.624;9.786;2023-07-13T06:57:00;9.60;;;2.30;;
5391;SDS011;2719;53.624;9.786;2023-07-13T06:59:26;11.53;;;2.83;;
5391;SDS011;2719;53.624;9.786;2023-07-13T07:01:53;15.50;;;2.23;;
5391;SDS011;2719;53.624;9.786;2023-07-13T07:04:20;10.30;;;1.20;;
5391;SDS011;2719;53.624;9.786;2023-07-13T07:06:48;7.97;;;2.87;;
5391;SDS011;2719;53.624;9.786;2023-07-13T07:09:14;24.53;;;3.27;;
5391;SDS011;2719;53.624;9.786;2023-07-13T07:11:42;6.13;;;1.40;;
5391;SDS011;2719;53.624;9.786;2023-07-13T07:14:09;14.83;;;1.97;;
5391;SDS011;2719;53.624;9.786;2023-07-13T07:16:36;22.10;;;2.40;;
5391;SDS011;2719;53.624;9.786;2023-07-13T07:19:02;16.43;;;1.80;;
5391;SDS011;2719;53.624;9.786;2023-07-13T07:21:29;10.90;;;2.60;;
5391;SDS011;2719;53.624;9.786;2023-07-13T07:23:57;19.23;;;1.80;;
5391;SDS011;2719;53.624;9.786;2023-07-13T07:26:24;10.03;;;1.47;;
5391;SDS011;2719;53.624;9.786;2023-07-13T07:28:51;10.30;;;1.83;;
5391;SDS011;2719;53.624;9.786;2023-07-13T07:31:18;10.27;;;2.33;;
5391;SDS011;2719;53.624;9.786;2023-07-13T07:33:44;12.70;;;2.23;;
5391;SDS011;2719;53.624;9.786;2023-07-13T07:36:11;10.97;;;2.50;;
5391;SDS011;2719;53.624;9.786;2023-07-13T07:38:38;10.47;;;2.23;;
5391;SDS011;2719;53.624;9.786;2023-07-13T07:41:06;9.50;;;1.87;;
5391;SDS011;2719;53.624;9.786;2023-07-13T07:43:32;17.97;;;2.80;;
5391;SDS011;2719;53.624;9.786;2023-07-13T07:45:59;11.23;;;1.93;;
5391;SDS011;2719;53.624;9.786;2023-07-13T07:48:26;9.23;;;1.97;;
5391;SDS011;2719;53.624;9.786;2023-07-13T07:50:52;10.77;;;1.83;;
5391;SDS011;2719;53.624;9.786;2023-07-13T07:53:19;15.07;;;2.13;;
5391;SDS011;2719;53.624;9.786;2023-07-13T07:55:46;12.80;;;1.93;;
5391;SDS011;2719;53.624;9.786;2023-07-13T07:58:14;9.57;;;2.50;;
5391;SDS011;2719;53.624;9.786;2023-07-13T08:00:41;8.60;;;1.80;;
5391;SDS011;2719;53.624;9.786;2023-07-13T08:03:08;11.10;;;2.03;;
5391;SDS011;2719;53.624;9.786;2023-07-13T08:05:35;6.77;;;1.53;;
5391;SDS011;2719;53.624;9.786;2023-07-13T08:08:02;9.83;;;2.60;;
5391;SDS011;2719;53.624;9.786;2023-07-13T08:10:29;13.13;;;1.87;;
5391;SDS011;2719;53.624;9.786;2023-07-13T08:12:56;12.33;;;2.03;;
5391;SDS011;2719;53.624;9.786;2023-07-13T08:15:24;12.37;;;1.90;;
5391;SDS011;2719;53.624;9.786;2023-07-13T08:17:51;5.57;;;1.77;;
5391;SDS011;2719;53.624;9.786;2023-07-13T08:20:17;11.50;;;2.17;;
5391;SDS011;2719;53.624;9.786;2023-07-13T08:22:44;7.03;;;1.70;;
5391;SDS011;2719;53.624;9.786;2023-07-13T08:25:11;14.20;;;3.50;;
5391;SDS011;2719;53.624;9.786;2023-07-13T08:27:38;10.60;;;2.27;;
5391;SDS011;2719;53.624;9.786;2023-07-13T08:30:05;18.33;;;1.60;;
5391;SDS011;2719;53.624;9.786;2023-07-13T08:32:35;14.20;;;2.20;;
5391;SDS011;2719;53.624;9.786;2023-07-13T08:35:02;10.20;;;2.40;;
5391;SDS011;2719;53.624;9.786;2023-07-13T08:37:29;9.20;;;1.63;;
5391;SDS011;2719;53.624;9.786;2023-07-13T08:39:56;17.00;;;1.93;;
5391;SDS011;2719;53.624;9.786;2023-07-13T08:42:27;11.20;;;1.47;;
5391;SDS011;2719;53.624;9.786;2023-07-13T08:45:01;8.33;;;1.77;;
5391;SDS011;2719;53.624;9.786;2023-07-13T08:47:35;11.37;;;2.03;;
5391;SDS011;2719;53.624;9.786;2023-07-13T08:50:08;14.87;;;1.53;;
5391;SDS011;2719;53.624;9.786;2023-07-13T08:52:38;13.13;;;1.63;;
5391;SDS011;2719;53.624;9.786;2023-07-13T08:55:09;9.40;;;1.50;;
5391;SDS011;2719;53.624;9.786;2023-07-13T08:57:40;10.70;;;1.33;;
5391;SDS011;2719;53.624;9.786;2023-07-13T09:00:09;12.23;;;1.43;;
5391;SDS011;2719;53.624;9.786;2023-07-13T09:02:41;5.10;;;1.53;;
5391;SDS011;2719;53.624;9.786;2023-07-13T09:05:12;9.20;;;1.37;;
5391;SDS011;2719;53.624;9.786;2023-07-13T09:07:58;7.60;;;1.50;;
5391;SDS011;2719;53.624;9.786;2023-07-13T09:10:36;15.53;;;1.73;;
5391;SDS011;2719;53.624;9.786;2023-07-13T09:13:12;14.37;;;1.90;;
5391;SDS011;2719;53.624;9.786;2023-07-13T09:15:47;12.20;;;1.60;;
5391;SDS011;2719;53.624;9.786;2023-07-13T09:18:19;10.67;;;1.90;;
5391;SDS011;2719;53.624;9.786;2023-07-13T09:20:52;4.87;;;1.03;;
5391;SDS011;2719;53.624;9.786;2023-07-13T09:23:22;9.40;;;1.53;;
5391;SDS011;2719;53.624;9.786;2023-07-13T09:25:51;4.83;;;1.90;;
5391;SDS011;2719;53.624;9.786;2023-07-13T09:28:23;3.90;;;1.17;;
5391;SDS011;2719;53.624;9.786;2023-07-13T09:30:52;7.53;;;1.43;;
5391;SDS011;2719;53.624;9.786;2023-07-13T09:33:28;9.13;;;1.40;;
5391;SDS011;2719;53.624;9.786;2023-07-13T09:35:55;10.07;;;2.07;;
5391;SDS011;2719;53.624;9.786;2023-07-13T09:38:23;7.47;;;1.53;;
5391;SDS011;2719;53.624;9.786;2023-07-13T09:41:04;5.60;;;1.60;;
5391;SDS011;2719;53.624;9.786;2023-07-13T09:44:00;5.20;;;1.03;;
5391;SDS011;2719;53.624;9.786;2023-07-13T09:46:27;3.63;;;1.27;;
5391;SDS011;2719;53.624;9.786;2023-07-13T09:48:56;4.67;;;1.10;;
5391;SDS011;2719;53.624;9.786;2023-07-13T09:51:22;9.07;;;2.40;;
5391;SDS011;2719;53.624;9.786;2023-07-13T09:53:49;4.90;;;1.30;;
5391;SDS011;2719;53.624;9.786;2023-07-13T09:56:19;7.50;;;1.57;;
5391;SDS011;2719;53.624;9.786;2023-07-13T09:58:47;10.53;;;1.20;;
5391;SDS011;2719;53.624;9.786;2023-07-13T10:01:14;8.00;;;1.30;;
5391;SDS011;2719;53.624;9.786;2023-07-13T10:03:51;9.63;;;0.90;;
5391;SDS011;2719;53.624;9.786;2023-07-13T10:06:20;7.47;;;1.63;;
5391;SDS011;2719;53.624;9.786;2023-07-13T10:08:48;8.80;;;1.27;;
5391;SDS011;2719;53.624;9.786;2023-07-13T10:11:17;7.93;;;1.10;;
5391;SDS011;2719;53.624;9.786;2023-07-13T10:13:48;6.23;;;1.50;;
5391;SDS011;2719;53.624;9.786;2023-07-13T10:16:18;5.20;;;1.00;;
5391;SDS011;2719;53.624;9.786;2023-07-13T10:18:46;9.10;;;2.00;;
5391;SDS011;2719;53.624;9.786;2023-07-13T10:21:15;5.20;;;1.57;;
5391;SDS011;2719;53.624;9.786;2023-07-13T10:23:45;5.10;;;1.00;;
5391;SDS011;2719;53.624;9.786;2023-07-13T10:26:16;13.73;;;0.90;;
5391;SDS011;2719;53.624;9.786;2023-07-13T10:28:47;8.70;;;1.27;;
5391;SDS011;2719;53.624;9.786;2023-07-13T10:31:20;3.17;;;0.87;;
5391;SDS011;2719;53.624;9.786;2023-07-13T10:33:48;5.53;;;0.93;;
5391;SDS011;2719;53.624;9.786;2023-07-13T10:36:17;5.83;;;1.10;;
5391;SDS011;2719;53.624;9.786;2023-07-13T10:38:53;7.10;;;1.00;;
5391;SDS011;2719;53.624;9.786;2023-07-13T10:41:21;3.97;;;0.97;;
5391;SDS011;2719;53.624;9.786;2023-07-13T10:43:52;5.73;;;1.00;;
5391;SDS011;2719;53.624;9.786;2023-07-13T10:46:22;2.93;;;0.80;;
5391;SDS011;2719;53.624;9.786;2023-07-13T10:48:53;4.20;;;0.77;;
5391;SDS011;2719;53.624;9.786;2023-07-13T10:51:23;5.57;;;1.13;;
5391;SDS011;2719;53.624;9.786;2023-07-13T10:56:48;7.13;;;1.43;;
5391;SDS011;2719;53.624;9.786;2023-07-13T10:59:17;6.37;;;0.90;;
5391;SDS011;2719;53.624;9.786;2023-07-13T11:01:52;4.50;;;1.03;;
5391;SDS011;2719;53.624;9.786;2023-07-13T11:04:22;3.17;;;0.80;;
5391;SDS011;2719;53.624;9.786;2023-07-13T11:06:52;5.47;;;1.17;;
5391;SDS011;2719;53.624;9.786;2023-07-13T11:09:33;12.03;;;1.10;;
5391;SDS011;2719;53.624;9.786;2023-07-13T11:12:25;3.90;;;0.70;;
5391;SDS011;2719;53.624;9.786;2023-07-13T11:15:02;3.23;;;0.80;;
5391;SDS011;2719;53.624;9.786;2023-07-13T11:17:35;2.10;;;0.87;;
5391;SDS011;2719;53.624;9.786;2023-07-13T11:20:19;4.43;;;0.83;;
5391;SDS011;2719;53.624;9.786;2023-07-13T11:22:50;3.50;;;1.07;;
5391;SDS011;2719;53.624;9.786;2023-07-13T11:25:24;1.73;;;0.60;;
5391;SDS011;2719;53.624;9.786;2023-07-13T11:28:05;5.40;;;0.60;;
5391;SDS011;2719;53.624;9.786;2023-07-13T11:30:40;2.10;;;0.47;;
5391;SDS011;2719;53.624;9.786;2023-07-13T11:33:13;3.40;;;0.70;;
5391;SDS011;2719;53.624;9.786;2023-07-13T11:35:44;3.13;;;0.60;;
5391;SDS011;2719;53.624;9.786;2023-07-13T11:38:18;2.00;;;0.60;;
5391;SDS011;2719;53.624;9.786;2023-07-13T11:40:47;4.87;;;0.67;;
5391;SDS011;2719;53.624;9.786;2023-07-13T11:43:18;6.60;;;0.70;;
5391;SDS011;2719;53.624;9.786;2023-07-13T11:45:48;3.93;;;1.00;;
5391;SDS011;2719;53.624;9.786;2023-07-13T11:48:23;2.50;;;0.73;;
5391;SDS011;2719;53.624;9.786;2023-07-13T11:50:55;5.80;;;1.20;;
5391;SDS011;2719;53.624;9.786;2023-07-13T11:53:26;5.30;;;0.70;;
5391;SDS011;2719;53.624;9.786;2023-07-13T11:55:55;3.93;;;0.60;;
5391;SDS011;2719;53.624;9.786;2023-07-13T11:58:24;4.00;;;0.70;;
5391;SDS011;2719;53.624;9.786;2023-07-13T12:00:53;4.90;;;0.70;;
5391;SDS011;2719;53.624;9.786;2023-07-13T12:03:23;9.97;;;0.77;;
5391;SDS011;2719;53.624;9.786;2023-07-13T12:05:54;7.80;;;1.10;;
5391;SDS011;2719;53.624;9.786;2023-07-13T12:08:26;4.20;;;0.70;;
5391;SDS011;2719;53.624;9.786;2023-07-13T12:10:56;7.77;;;1.33;;
5391;SDS011;2719;53.624;9.786;2023-07-13T12:13:26;3.17;;;0.97;;
5391;SDS011;2719;53.624;9.786;2023-07-13T12:15:55;5.43;;;0.90;;
5391;SDS011;2719;53.624;9.786;2023-07-13T12:18:23;3.60;;;0.70;;
5391;SDS011;2719;53.624;9.786;2023-07-13T12:20:55;4.17;;;1.00;;
5391;SDS011;2719;53.624;9.786;2023-07-13T12:23:25;4.57;;;0.87;;
5391;SDS011;2719;53.624;9.786;2023-07-13T12:25:54;4.23;;;1.50;;
5391;SDS011;2719;53.624;9.786;2023-07-13T12:28:28;10.10;;;1.87;;
5391;SDS011;2719;53.624;9.786;2023-07-13T12:30:59;13.47;;;1.23;;
5391;SDS011;2719;53.624;9.786;2023-07-13T12:33:27;5.67;;;0.90;;
5391;SDS011;2719;53.624;9.786;2023-07-13T12:35:56;9.53;;;1.47;;
5391;SDS011;2719;53.624;9.786;2023-07-13T12:38:24;9.00;;;1.33;;
5391;SDS011;2719;53.624;9.786;2023-07-13T12:40:51;7.20;;;0.80;;
5391;SDS011;2719;53.624;9.786;2023-07-13T12:43:19;4.93;;;1.03;;
5391;SDS011;2719;53.624;9.786;2023-07-13T12:45:56;5.37;;;0.90;;
5391;SDS011;2719;53.624;9.786;2023-07-13T12:48:25;6.23;;;1.07;;
5391;SDS011;2719;53.624;9.786;2023-07-13T12:50:53;5.80;;;1.00;;
5391;SDS011;2719;53.624;9.786;2023-07-13T12:53:21;4.40;;;1.00;;
5391;SDS011;2719;53.624;9.786;2023-07-13T12:55:50;3.63;;;0.70;;
5391;SDS011;2719;53.624;9.786;2023-07-13T12:58:26;2.30;;;0.70;;
5391;SDS011;2719;53.624;9.786;2023-07-13T13:00:56;2.93;;;0.90;;
5391;SDS011;2719;53.624;9.786;2023-07-13T13:03:26;2.40;;;1.00;;
5391;SDS011;2719;53.624;9.786;2023-07-13T13:05:58;6.13;;;0.70;;
5391;SDS011;2719;53.624;9.786;2023-07-13T13:08:27;3.60;;;0.87;;
5391;SDS011;2719;53.624;9.786;2023-07-13T13:10:55;4.23;;;0.80;;
5391;SDS011;2719;53.624;9.786;2023-07-13T13:13:22;2.30;;;0.93;;
5391;SDS011;2719;53.624;9.786;2023-07-13T13:15:49;4.60;;;0.80;;
5391;SDS011;2719;53.624;9.786;2023-07-13T13:18:19;2.87;;;0.77;;
5391;SDS011;2719;53.624;9.786;2023-07-13T13:20:47;3.43;;;0.60;;
5391;SDS011;2719;53.624;9.786;2023-07-13T13:23:15;5.30;;;1.10;;
5391;SDS011;2719;53.624;9.786;2023-07-13T13:25:43;4.10;;;0.60;;
5391;SDS011;2719;53.624;9.786;2023-07-13T13:28:14;12.17;;;0.70;;
5391;SDS011;2719;53.624;9.786;2023-07-13T13:30:42;4.90;;;0.80;;
5391;SDS011;2719;53.624;9.786;2023-07-13T13:33:11;1.27;;;0.70;;
5391;SDS011;2719;53.624;9.786;2023-07-13T13:35:40;3.20;;;0.60;;
5391;SDS011;2719;53.624;9.786;2023-07-13T13:38:11;3.80;;;0.60;;
5391;SDS011;2719;53.624;9.786;2023-07-13T13:40:39;2.90;;;0.77;;
5391;SDS011;2719;53.624;9.786;2023-07-13T13:43:13;3.13;;;0.60;;
5391;SDS011;2719;53.624;9.786;2023-07-13T13:45:42;2.23;;;0.80;;
5391;SDS011;2719;53.624;9.786;2023-07-13T13:48:13;3.80;;;1.20;;
5391;SDS011;2719;53.624;9.786;2023-07-13T13:50:42;2.50;;;0.80;;
5391;SDS011;2719;53.624;9.786;2023-07-13T13:53:10;3.73;;;0.80;;
5391;SDS011;2719;53.624;9.786;2023-07-13T13:55:38;3.57;;;0.97;;
5391;SDS011;2719;53.624;9.786;2023-07-13T13:58:07;3.60;;;1.33;;
5391;SDS011;2719;53.624;9.786;2023-07-13T14:00:34;1.70;;;0.80;;
5391;SDS011;2719;53.624;9.786;2023-07-13T14:03:01;1.77;;;0.80;;
5391;SDS011;2719;53.624;9.786;2023-07-13T14:05:28;2.80;;;0.70;;
5391;SDS011;2719;53.624;9.786;2023-07-13T14:07:56;4.30;;;0.80;;
5391;SDS011;2719;53.624;9.786;2023-07-13T14:10:24;3.37;;;1.00;;
5391;SDS011;2719;53.624;9.786;2023-07-13T14:12:53;3.27;;;0.90;;
5391;SDS011;2719;53.624;9.786;2023-07-13T14:15:21;3.40;;;0.90;;
5391;SDS011;2719;53.624;9.786;2023-07-13T14:17:50;6.03;;;0.70;;
5391;SDS011;2719;53.624;9.786;2023-07-13T14:20:17;5.70;;;1.77;;
5391;SDS011;2719;53.624;9.786;2023-07-13T14:22:44;2.27;;;0.67;;
5391;SDS011;2719;53.624;9.786;2023-07-13T14:25:13;4.57;;;0.90;;
5391;SDS011;2719;53.624;9.786;2023-07-13T14:27:41;2.07;;;0.60;;
5391;SDS011;2719;53.624;9.786;2023-07-13T14:30:12;4.10;;;1.00;;
5391;SDS011;2719;53.624;9.786;2023-07-13T14:32:40;8.30;;;1.23;;
5391;SDS011;2719;53.624;9.786;2023-07-13T14:35:07;7.10;;;1.07;;
5391;SDS011;2719;53.624;9.786;2023-07-13T14:37:36;2.20;;;0.90;;
5391;SDS011;2719;53.624;9.786;2023-07-13T14:40:07;6.20;;;1.70;;
5391;SDS011;2719;53.624;9.786;2023-07-13T14:42:40;7.53;;;1.07;;
5391;SDS011;2719;53.624;9.786;2023-07-13T14:45:12;10.80;;;1.40;;
5391;SDS011;2719;53.624;9.786;2023-07-13T14:47:40;7.13;;;1.73;;
5391;SDS011;2719;53.624;9.786;2023-07-13T14:50:11;3.30;;;1.33;;
5391;SDS011;2719;53.624;9.786;2023-07-13T14:52:41;2.03;;;1.03;;
5391;SDS011;2719;53.624;9.786;2023-07-13T14:55:10;5.60;;;0.97;;
5391;SDS011;2719;53.624;9.786;2023-07-13T14:57:38;2.00;;;1.03;;
5391;SDS011;2719;53.624;9.786;2023-07-13T15:00:08;3.27;;;1.27;;
5391;SDS011;2719;53.624;9.786;2023-07-13T15:02:40;2.83;;;0.70;;
5391;SDS011;2719;53.624;9.786;2023-07-13T15:05:12;1.63;;;0.60;;
5391;SDS011;2719;53.624;9.786;2023-07-13T15:07:40;5.00;;;0.80;;
5391;SDS011;2719;53.624;9.786;2023-07-13T15:10:12;9.40;;;1.07;;
5391;SDS011;2719;53.624;9.786;2023-07-13T15:12:41;1.07;;;0.50;;
5391;SDS011;2719;53.624;9.786;2023-07-13T15:15:08;3.57;;;0.50;;
5391;SDS011;2719;53.624;9.786;2023-07-13T15:17:36;1.50;;;0.70;;
5391;SDS011;2719;53.624;9.786;2023-07-13T15:20:05;3.33;;;0.73;;
5391;SDS011;2719;53.624;9.786;2023-07-13T15:22:39;6.33;;;0.73;;
5391;SDS011;2719;53.624;9.786;2023-07-13T15:25:07;1.37;;;0.70;;
5391;SDS011;2719;53.624;9.786;2023-07-13T15:27:42;3.17;;;0.70;;